sensor_id;sensor_type;location;lat;lon;timestamp;P1;durP1;ratioP1;P2;durP2;ratioP2
14282;SDS011;7225;59.282;18.344;2022-11-25T00:01:20;2.07;;;1.10;;
14282;SDS011;7225;59.282;18.344;2022-11-25T00:03:50;0.93;;;0.77;;
14282;SDS011;7225;59.282;18.344;2022-11-25T00:06:24;1.30;;;1.10;;
14282;SDS011;7225;59.282;18.344;2022-11-25T00:08:57;1.17;;;0.80;;
14282;SDS011;7225;59.282;18.344;2022-11-25T00:11:26;0.97;;;0.87;;
14282;SDS011;7225;59.282;18.344;2022-11-25T00:13:55;1.30;;;1.00;;
14282;SDS011;7225;59.282;18.344;2022-11-25T00:16:23;1.10;;;0.80;;
14282;SDS011;7225;59.282;18.344;2022-11-25T00:18:52;0.67;;;0.67;;
14282;SDS011;7225;59.282;18.344;2022-11-25T00:21:22;0.73;;;0.60;;
14282;SDS011;7225;59.282;18.344;2022-11-25T00:23:52;1.37;;;0.80;;
14282;SDS011;7225;59.282;18.344;2022-11-25T00:26:20;1.47;;;1.00;;
14282;SDS011;7225;59.282;18.344;2022-11-25T00:28:48;0.87;;;0.83;;
14282;SDS011;7225;59.282;18.344;2022-11-25T00:31:20;0.97;;;0.63;;
14282;SDS011;7225;59.282;18.344;2022-11-25T00:33:50;0.83;;;0.80;;
14282;SDS011;7225;59.282;18.344;2022-11-25T00:38:52;1.50;;;0.80;;
14282;SDS011;7225;59.282;18.344;2022-11-25T00:41:22;2.40;;;0.83;;
14282;SDS011;7225;59.282;18.344;2022-11-25T00:44:10;0.87;;;0.70;;
14282;SDS011;7225;59.282;18.344;2022-11-25T00:46:59;2.90;;;1.00;;
14282;SDS011;7225;59.282;18.344;2022-11-25T00:49:28;2.00;;;1.10;;
14282;SDS011;7225;59.282;18.344;2022-11-25T00:51:55;1.13;;;1.00;;
14282;SDS011;7225;59.282;18.344;2022-11-25T00:54:23;0.97;;;0.77;;
14282;SDS011;7225;59.282;18.344;2022-11-25T00:56:50;0.67;;;0.67;;
14282;SDS011;7225;59.282;18.344;2022-11-25T00:59:18;0.73;;;0.70;;
14282;SDS011;7225;59.282;18.344;2022-11-25T01:01:45;0.87;;;0.57;;
14282;SDS011;7225;59.282;18.344;2022-11-25T01:04:12;1.17;;;0.70;;
14282;SDS011;7225;59.282;18.344;2022-11-25T01:06:39;1.23;;;0.87;;
14282;SDS011;7225;59.282;18.344;2022-11-25T01:09:06;0.70;;;0.63;;
14282;SDS011;7225;59.282;18.344;2022-11-25T01:11:34;1.13;;;1.00;;
14282;SDS011;7225;59.282;18.344;2022-11-25T01:14:01;1.03;;;0.73;;
14282;SDS011;7225;59.282;18.344;2022-11-25T01:16:28;1.33;;;0.90;;
14282;SDS011;7225;59.282;18.344;2022-11-25T01:18:58;1.07;;;0.90;;
14282;SDS011;7225;59.282;18.344;2022-11-25T01:21:27;0.80;;;0.60;;
14282;SDS011;7225;59.282;18.344;2022-11-25T01:23:57;1.20;;;0.73;;
14282;SDS011;7225;59.282;18.344;2022-11-25T01:26:26;1.00;;;0.80;;
14282;SDS011;7225;59.282;18.344;2022-11-25T01:28:54;0.77;;;0.70;;
14282;SDS011;7225;59.282;18.344;2022-11-25T01:31:23;1.67;;;0.90;;
14282;SDS011;7225;59.282;18.344;2022-11-25T01:33:56;1.30;;;1.00;;
14282;SDS011;7225;59.282;18.344;2022-11-25T01:36:26;0.80;;;0.80;;
14282;SDS011;7225;59.282;18.344;2022-11-25T01:38:54;0.70;;;0.60;;
14282;SDS011;7225;59.282;18.344;2022-11-25T01:41:25;2.37;;;1.00;;
14282;SDS011;7225;59.282;18.344;2022-11-25T01:44:02;0.97;;;0.90;;
14282;SDS011;7225;59.282;18.344;2022-11-25T01:46:42;1.13;;;1.03;;
14282;SDS011;7225;59.282;18.344;2022-11-25T01:50:00;3.17;;;1.20;;
14282;SDS011;7225;59.282;18.344;2022-11-25T01:52:30;1.30;;;0.77;;
14282;SDS011;7225;59.282;18.344;2022-11-25T01:55:04;0.80;;;0.70;;
14282;SDS011;7225;59.282;18.344;2022-11-25T01:57:38;1.07;;;0.90;;
14282;SDS011;7225;59.282;18.344;2022-11-25T02:00:10;2.17;;;1.00;;
14282;SDS011;7225;59.282;18.344;2022-11-25T02:02:40;0.93;;;0.80;;
14282;SDS011;7225;59.282;18.344;2022-11-25T02:05:10;1.07;;;0.90;;
14282;SDS011;7225;59.282;18.344;2022-11-25T02:07:43;1.20;;;0.80;;
14282;SDS011;7225;59.282;18.344;2022-11-25T02:10:14;1.27;;;0.90;;
14282;SDS011;7225;59.282;18.344;2022-11-25T02:12:45;1.63;;;0.90;;
14282;SDS011;7225;59.282;18.344;2022-11-25T02:15:15;1.67;;;1.07;;
14282;SDS011;7225;59.282;18.344;2022-11-25T02:17:43;2.27;;;1.00;;
14282;SDS011;7225;59.282;18.344;2022-11-25T02:20:13;1.27;;;1.00;;
14282;SDS011;7225;59.282;18.344;2022-11-25T02:25:29;1.70;;;1.00;;
14282;SDS011;7225;59.282;18.344;2022-11-25T02:28:18;0.93;;;0.83;;
14282;SDS011;7225;59.282;18.344;2022-11-25T02:30:57;1.13;;;1.00;;
14282;SDS011;7225;59.282;18.344;2022-11-25T02:33:25;0.93;;;0.70;;
14282;SDS011;7225;59.282;18.344;2022-11-25T02:36:26;1.60;;;0.90;;
14282;SDS011;7225;59.282;18.344;2022-11-25T02:38:50;1.00;;;0.83;;
14282;SDS011;7225;59.282;18.344;2022-11-25T02:41:24;1.13;;;0.90;;
14282;SDS011;7225;59.282;18.344;2022-11-25T02:44:04;0.93;;;0.73;;
14282;SDS011;7225;59.282;18.344;2022-11-25T02:46:31;1.37;;;1.10;;
14282;SDS011;7225;59.282;18.344;2022-11-25T02:48:59;3.03;;;0.97;;
14282;SDS011;7225;59.282;18.344;2022-11-25T02:51:35;2.10;;;0.80;;
14282;SDS011;7225;59.282;18.344;2022-11-25T02:54:03;0.93;;;0.87;;
14282;SDS011;7225;59.282;18.344;2022-11-25T02:56:32;1.77;;;1.17;;
14282;SDS011;7225;59.282;18.344;2022-11-25T02:59:01;1.97;;;0.93;;
14282;SDS011;7225;59.282;18.344;2022-11-25T03:01:28;0.87;;;0.70;;
14282;SDS011;7225;59.282;18.344;2022-11-25T03:03:58;3.97;;;1.10;;
14282;SDS011;7225;59.282;18.344;2022-11-25T03:06:27;1.20;;;0.80;;
14282;SDS011;7225;59.282;18.344;2022-11-25T03:08:56;1.00;;;0.90;;
14282;SDS011;7225;59.282;18.344;2022-11-25T03:11:23;1.00;;;0.90;;
14282;SDS011;7225;59.282;18.344;2022-11-25T03:14:09;1.00;;;0.90;;
14282;SDS011;7225;59.282;18.344;2022-11-25T03:16:36;1.40;;;0.93;;
14282;SDS011;7225;59.282;18.344;2022-11-25T03:19:03;1.87;;;1.10;;
14282;SDS011;7225;59.282;18.344;2022-11-25T03:21:30;1.53;;;1.07;;
14282;SDS011;7225;59.282;18.344;2022-11-25T03:23:57;1.00;;;0.70;;
14282;SDS011;7225;59.282;18.344;2022-11-25T03:26:25;1.37;;;0.97;;
14282;SDS011;7225;59.282;18.344;2022-11-25T03:28:52;0.93;;;0.70;;
14282;SDS011;7225;59.282;18.344;2022-11-25T03:31:19;1.20;;;0.80;;
14282;SDS011;7225;59.282;18.344;2022-11-25T03:33:46;1.90;;;0.80;;
14282;SDS011;7225;59.282;18.344;2022-11-25T03:36:14;1.93;;;0.80;;
14282;SDS011;7225;59.282;18.344;2022-11-25T03:38:41;1.27;;;0.97;;
14282;SDS011;7225;59.282;18.344;2022-11-25T03:41:10;1.97;;;0.87;;
14282;SDS011;7225;59.282;18.344;2022-11-25T03:43:38;0.93;;;0.83;;
14282;SDS011;7225;59.282;18.344;2022-11-25T03:46:05;0.80;;;0.70;;
14282;SDS011;7225;59.282;18.344;2022-11-25T03:48:32;1.53;;;0.90;;
14282;SDS011;7225;59.282;18.344;2022-11-25T03:51:00;1.03;;;0.93;;
14282;SDS011;7225;59.282;18.344;2022-11-25T03:53:27;0.77;;;0.70;;
14282;SDS011;7225;59.282;18.344;2022-11-25T03:55:54;1.43;;;0.80;;
14282;SDS011;7225;59.282;18.344;2022-11-25T03:58:21;0.97;;;0.77;;
14282;SDS011;7225;59.282;18.344;2022-11-25T04:00:48;1.73;;;1.03;;
14282;SDS011;7225;59.282;18.344;2022-11-25T04:03:15;0.80;;;0.80;;
14282;SDS011;7225;59.282;18.344;2022-11-25T04:05:43;1.80;;;0.90;;
14282;SDS011;7225;59.282;18.344;2022-11-25T04:08:12;0.63;;;0.60;;
14282;SDS011;7225;59.282;18.344;2022-11-25T04:10:39;1.03;;;0.70;;
14282;SDS011;7225;59.282;18.344;2022-11-25T04:13:06;1.03;;;0.73;;
14282;SDS011;7225;59.282;18.344;2022-11-25T04:15:33;0.70;;;0.60;;
14282;SDS011;7225;59.282;18.344;2022-11-25T04:18:00;0.70;;;0.63;;
14282;SDS011;7225;59.282;18.344;2022-11-25T04:20:27;2.40;;;1.03;;
14282;SDS011;7225;59.282;18.344;2022-11-25T04:22:54;1.97;;;0.80;;
14282;SDS011;7225;59.282;18.344;2022-11-25T04:25:21;0.80;;;0.60;;
14282;SDS011;7225;59.282;18.344;2022-11-25T04:27:49;0.90;;;0.77;;
14282;SDS011;7225;59.282;18.344;2022-11-25T04:30:16;1.03;;;0.77;;
14282;SDS011;7225;59.282;18.344;2022-11-25T04:32:43;1.10;;;0.80;;
14282;SDS011;7225;59.282;18.344;2022-11-25T04:35:10;0.90;;;0.80;;
14282;SDS011;7225;59.282;18.344;2022-11-25T04:37:37;1.20;;;0.73;;
14282;SDS011;7225;59.282;18.344;2022-11-25T04:40:04;0.90;;;0.60;;
14282;SDS011;7225;59.282;18.344;2022-11-25T04:42:31;1.03;;;0.70;;
14282;SDS011;7225;59.282;18.344;2022-11-25T04:45:00;0.90;;;0.70;;
14282;SDS011;7225;59.282;18.344;2022-11-25T04:47:48;1.40;;;0.90;;
14282;SDS011;7225;59.282;18.344;2022-11-25T04:50:16;0.87;;;0.60;;
14282;SDS011;7225;59.282;18.344;2022-11-25T04:52:45;0.80;;;0.73;;
14282;SDS011;7225;59.282;18.344;2022-11-25T04:55:11;1.23;;;0.80;;
14282;SDS011;7225;59.282;18.344;2022-11-25T04:57:38;0.93;;;0.80;;
14282;SDS011;7225;59.282;18.344;2022-11-25T05:00:06;0.83;;;0.67;;
14282;SDS011;7225;59.282;18.344;2022-11-25T05:02:34;1.10;;;0.80;;
14282;SDS011;7225;59.282;18.344;2022-11-25T05:05:01;0.70;;;0.60;;
14282;SDS011;7225;59.282;18.344;2022-11-25T05:07:30;1.70;;;0.60;;
14282;SDS011;7225;59.282;18.344;2022-11-25T05:09:58;1.07;;;0.83;;
14282;SDS011;7225;59.282;18.344;2022-11-25T05:12:26;0.90;;;0.70;;
14282;SDS011;7225;59.282;18.344;2022-11-25T05:14:55;0.90;;;0.73;;
14282;SDS011;7225;59.282;18.344;2022-11-25T05:17:29;0.87;;;0.63;;
14282;SDS011;7225;59.282;18.344;2022-11-25T05:19:57;0.73;;;0.63;;
14282;SDS011;7225;59.282;18.344;2022-11-25T05:22:27;0.60;;;0.50;;
14282;SDS011;7225;59.282;18.344;2022-11-25T05:24:57;0.60;;;0.60;;
14282;SDS011;7225;59.282;18.344;2022-11-25T05:27:26;0.97;;;0.90;;
14282;SDS011;7225;59.282;18.344;2022-11-25T05:29:53;0.73;;;0.67;;
14282;SDS011;7225;59.282;18.344;2022-11-25T05:32:22;0.93;;;0.80;;
14282;SDS011;7225;59.282;18.344;2022-11-25T05:34:49;0.83;;;0.73;;
14282;SDS011;7225;59.282;18.344;2022-11-25T05:37:17;0.80;;;0.80;;
14282;SDS011;7225;59.282;18.344;2022-11-25T05:39:49;1.63;;;0.83;;
14282;SDS011;7225;59.282;18.344;2022-11-25T05:42:17;0.80;;;0.80;;
14282;SDS011;7225;59.282;18.344;2022-11-25T05:44:45;0.60;;;0.60;;
14282;SDS011;7225;59.282;18.344;2022-11-25T05:47:12;0.87;;;0.80;;
14282;SDS011;7225;59.282;18.344;2022-11-25T05:49:39;0.70;;;0.60;;
14282;SDS011;7225;59.282;18.344;2022-11-25T05:52:06;0.80;;;0.80;;
14282;SDS011;7225;59.282;18.344;2022-11-25T05:54:33;0.70;;;0.60;;
14282;SDS011;7225;59.282;18.344;2022-11-25T05:57:00;0.87;;;0.70;;
14282;SDS011;7225;59.282;18.344;2022-11-25T05:59:27;1.60;;;1.20;;
14282;SDS011;7225;59.282;18.344;2022-11-25T06:01:55;1.13;;;1.00;;
14282;SDS011;7225;59.282;18.344;2022-11-25T06:04:23;1.33;;;1.00;;
14282;SDS011;7225;59.282;18.344;2022-11-25T06:06:49;2.43;;;1.50;;
14282;SDS011;7225;59.282;18.344;2022-11-25T06:09:18;1.67;;;1.10;;
14282;SDS011;7225;59.282;18.344;2022-11-25T06:11:47;1.03;;;0.93;;
14282;SDS011;7225;59.282;18.344;2022-11-25T06:14:15;1.40;;;1.30;;
14282;SDS011;7225;59.282;18.344;2022-11-25T06:16:45;1.13;;;1.00;;
14282;SDS011;7225;59.282;18.344;2022-11-25T06:19:12;1.53;;;1.00;;
14282;SDS011;7225;59.282;18.344;2022-11-25T06:21:40;1.33;;;1.10;;
14282;SDS011;7225;59.282;18.344;2022-11-25T06:24:07;1.30;;;1.20;;
14282;SDS011;7225;59.282;18.344;2022-11-25T06:26:34;1.30;;;1.20;;
14282;SDS011;7225;59.282;18.344;2022-11-25T06:29:01;0.90;;;0.90;;
14282;SDS011;7225;59.282;18.344;2022-11-25T06:31:28;1.30;;;1.10;;
14282;SDS011;7225;59.282;18.344;2022-11-25T06:33:55;1.00;;;0.90;;
14282;SDS011;7225;59.282;18.344;2022-11-25T06:36:22;1.37;;;0.90;;
14282;SDS011;7225;59.282;18.344;2022-11-25T06:38:50;1.83;;;0.90;;
14282;SDS011;7225;59.282;18.344;2022-11-25T06:41:20;1.17;;;1.00;;
14282;SDS011;7225;59.282;18.344;2022-11-25T06:43:48;0.90;;;0.90;;
14282;SDS011;7225;59.282;18.344;2022-11-25T06:46:16;2.17;;;1.10;;
14282;SDS011;7225;59.282;18.344;2022-11-25T06:48:53;1.00;;;0.90;;
14282;SDS011;7225;59.282;18.344;2022-11-25T06:51:22;1.10;;;1.00;;
14282;SDS011;7225;59.282;18.344;2022-11-25T06:53:49;1.27;;;1.10;;
14282;SDS011;7225;59.282;18.344;2022-11-25T06:56:19;1.10;;;0.83;;
14282;SDS011;7225;59.282;18.344;2022-11-25T06:58:48;1.40;;;1.07;;
14282;SDS011;7225;59.282;18.344;2022-11-25T07:03:58;1.43;;;0.83;;
14282;SDS011;7225;59.282;18.344;2022-11-25T07:06:27;0.90;;;0.80;;
14282;SDS011;7225;59.282;18.344;2022-11-25T07:08:54;1.20;;;1.10;;
14282;SDS011;7225;59.282;18.344;2022-11-25T07:11:23;0.80;;;0.70;;
14282;SDS011;7225;59.282;18.344;2022-11-25T07:14:09;1.33;;;1.03;;
14282;SDS011;7225;59.282;18.344;2022-11-25T07:16:39;1.37;;;1.10;;
14282;SDS011;7225;59.282;18.344;2022-11-25T07:19:09;0.90;;;0.80;;
14282;SDS011;7225;59.282;18.344;2022-11-25T07:21:39;0.97;;;0.77;;
14282;SDS011;7225;59.282;18.344;2022-11-25T07:24:06;1.10;;;1.00;;
14282;SDS011;7225;59.282;18.344;2022-11-25T07:26:35;1.00;;;0.80;;
14282;SDS011;7225;59.282;18.344;2022-11-25T07:29:07;1.47;;;1.00;;
14282;SDS011;7225;59.282;18.344;2022-11-25T07:31:56;1.00;;;0.80;;
14282;SDS011;7225;59.282;18.344;2022-11-25T07:34:23;1.27;;;0.90;;
14282;SDS011;7225;59.282;18.344;2022-11-25T07:36:51;1.37;;;0.90;;
14282;SDS011;7225;59.282;18.344;2022-11-25T07:39:21;0.97;;;0.90;;
14282;SDS011;7225;59.282;18.344;2022-11-25T07:41:49;1.37;;;1.10;;
14282;SDS011;7225;59.282;18.344;2022-11-25T07:44:17;1.00;;;0.87;;
14282;SDS011;7225;59.282;18.344;2022-11-25T07:46:46;1.23;;;1.00;;
14282;SDS011;7225;59.282;18.344;2022-11-25T07:49:16;1.90;;;1.40;;
14282;SDS011;7225;59.282;18.344;2022-11-25T07:51:51;3.13;;;1.63;;
14282;SDS011;7225;59.282;18.344;2022-11-25T07:54:24;1.13;;;1.00;;
14282;SDS011;7225;59.282;18.344;2022-11-25T07:56:54;2.27;;;1.17;;
14282;SDS011;7225;59.282;18.344;2022-11-25T07:59:21;1.57;;;1.43;;
14282;SDS011;7225;59.282;18.344;2022-11-25T08:01:49;1.13;;;1.03;;
14282;SDS011;7225;59.282;18.344;2022-11-25T08:04:21;1.67;;;1.20;;
14282;SDS011;7225;59.282;18.344;2022-11-25T08:06:50;1.77;;;1.30;;
14282;SDS011;7225;59.282;18.344;2022-11-25T08:09:19;1.77;;;1.40;;
14282;SDS011;7225;59.282;18.344;2022-11-25T08:11:49;3.17;;;1.50;;
14282;SDS011;7225;59.282;18.344;2022-11-25T08:14:19;1.10;;;1.00;;
14282;SDS011;7225;59.282;18.344;2022-11-25T08:16:48;2.40;;;1.47;;
14282;SDS011;7225;59.282;18.344;2022-11-25T08:19:15;1.93;;;1.30;;
14282;SDS011;7225;59.282;18.344;2022-11-25T08:21:43;1.87;;;1.50;;
14282;SDS011;7225;59.282;18.344;2022-11-25T08:24:18;1.40;;;1.03;;
14282;SDS011;7225;59.282;18.344;2022-11-25T08:26:47;1.93;;;1.50;;
14282;SDS011;7225;59.282;18.344;2022-11-25T08:29:17;1.43;;;1.17;;
14282;SDS011;7225;59.282;18.344;2022-11-25T08:31:45;1.93;;;1.40;;
14282;SDS011;7225;59.282;18.344;2022-11-25T08:34:18;2.00;;;1.53;;
14282;SDS011;7225;59.282;18.344;2022-11-25T08:36:48;1.40;;;1.20;;
14282;SDS011;7225;59.282;18.344;2022-11-25T08:39:18;1.70;;;1.33;;
14282;SDS011;7225;59.282;18.344;2022-11-25T08:42:07;1.83;;;1.60;;
14282;SDS011;7225;59.282;18.344;2022-11-25T08:44:35;1.50;;;1.30;;
14282;SDS011;7225;59.282;18.344;2022-11-25T08:47:02;1.83;;;1.57;;
14282;SDS011;7225;59.282;18.344;2022-11-25T08:49:30;2.33;;;1.63;;
14282;SDS011;7225;59.282;18.344;2022-11-25T08:52:05;2.07;;;1.60;;
14282;SDS011;7225;59.282;18.344;2022-11-25T08:54:33;1.43;;;1.33;;
14282;SDS011;7225;59.282;18.344;2022-11-25T08:57:01;2.30;;;1.40;;
14282;SDS011;7225;59.282;18.344;2022-11-25T08:59:30;1.73;;;1.60;;
14282;SDS011;7225;59.282;18.344;2022-11-25T09:01:57;1.40;;;1.30;;
14282;SDS011;7225;59.282;18.344;2022-11-25T09:04:26;2.60;;;2.00;;
14282;SDS011;7225;59.282;18.344;2022-11-25T09:06:56;2.03;;;1.40;;
14282;SDS011;7225;59.282;18.344;2022-11-25T09:09:24;2.83;;;1.90;;
14282;SDS011;7225;59.282;18.344;2022-11-25T09:11:53;1.53;;;1.23;;
14282;SDS011;7225;59.282;18.344;2022-11-25T09:14:21;2.30;;;1.50;;
14282;SDS011;7225;59.282;18.344;2022-11-25T09:16:49;1.70;;;1.30;;
14282;SDS011;7225;59.282;18.344;2022-11-25T09:19:16;1.67;;;1.50;;
14282;SDS011;7225;59.282;18.344;2022-11-25T09:21:45;1.77;;;1.40;;
14282;SDS011;7225;59.282;18.344;2022-11-25T09:24:13;1.37;;;1.27;;
14282;SDS011;7225;59.282;18.344;2022-11-25T09:26:40;1.30;;;1.20;;
14282;SDS011;7225;59.282;18.344;2022-11-25T09:29:08;2.10;;;1.37;;
14282;SDS011;7225;59.282;18.344;2022-11-25T09:31:38;2.50;;;1.37;;
14282;SDS011;7225;59.282;18.344;2022-11-25T09:34:05;1.67;;;1.47;;
14282;SDS011;7225;59.282;18.344;2022-11-25T09:36:34;1.50;;;1.40;;
14282;SDS011;7225;59.282;18.344;2022-11-25T09:39:02;2.03;;;1.83;;
14282;SDS011;7225;59.282;18.344;2022-11-25T09:50:04;3.10;;;1.60;;
14282;SDS011;7225;59.282;18.344;2022-11-25T09:55:28;1.93;;;1.60;;
14282;SDS011;7225;59.282;18.344;2022-11-25T09:58:08;2.50;;;1.70;;
14282;SDS011;7225;59.282;18.344;2022-11-25T10:00:37;1.80;;;1.60;;
14282;SDS011;7225;59.282;18.344;2022-11-25T10:08:34;2.17;;;1.77;;
14282;SDS011;7225;59.282;18.344;2022-11-25T10:11:20;1.47;;;1.30;;
14282;SDS011;7225;59.282;18.344;2022-11-25T10:14:30;2.37;;;1.50;;
14282;SDS011;7225;59.282;18.344;2022-11-25T10:20:06;1.83;;;1.57;;
14282;SDS011;7225;59.282;18.344;2022-11-25T10:22:43;1.93;;;1.60;;
14282;SDS011;7225;59.282;18.344;2022-11-25T10:25:16;1.53;;;1.43;;
14282;SDS011;7225;59.282;18.344;2022-11-25T10:27:56;2.27;;;1.50;;
14282;SDS011;7225;59.282;18.344;2022-11-25T10:30:32;3.03;;;1.70;;
14282;SDS011;7225;59.282;18.344;2022-11-25T10:33:29;1.80;;;1.40;;
14282;SDS011;7225;59.282;18.344;2022-11-25T10:36:03;1.83;;;1.53;;
14282;SDS011;7225;59.282;18.344;2022-11-25T10:41:36;2.10;;;1.53;;
14282;SDS011;7225;59.282;18.344;2022-11-25T10:44:26;3.20;;;1.70;;
14282;SDS011;7225;59.282;18.344;2022-11-25T10:49:59;1.93;;;1.63;;
14282;SDS011;7225;59.282;18.344;2022-11-25T10:52:31;1.90;;;1.47;;
14282;SDS011;7225;59.282;18.344;2022-11-25T10:55:23;2.10;;;1.60;;
14282;SDS011;7225;59.282;18.344;2022-11-25T10:57:53;1.77;;;1.60;;
14282;SDS011;7225;59.282;18.344;2022-11-25T11:02:54;1.57;;;1.30;;
14282;SDS011;7225;59.282;18.344;2022-11-25T11:05:24;2.80;;;1.70;;
14282;SDS011;7225;59.282;18.344;2022-11-25T11:08:08;5.23;;;4.77;;
14282;SDS011;7225;59.282;18.344;2022-11-25T11:10:37;4.53;;;4.13;;
14282;SDS011;7225;59.282;18.344;2022-11-25T11:13:17;4.50;;;3.67;;
14282;SDS011;7225;59.282;18.344;2022-11-25T11:15:50;3.93;;;2.23;;
14282;SDS011;7225;59.282;18.344;2022-11-25T11:18:24;4.53;;;2.97;;
14282;SDS011;7225;59.282;18.344;2022-11-25T11:20:58;2.57;;;1.73;;
14282;SDS011;7225;59.282;18.344;2022-11-25T11:23:28;2.87;;;1.73;;
14282;SDS011;7225;59.282;18.344;2022-11-25T11:26:00;2.70;;;2.23;;
14282;SDS011;7225;59.282;18.344;2022-11-25T11:31:16;3.63;;;2.40;;
14282;SDS011;7225;59.282;18.344;2022-11-25T11:34:02;2.50;;;2.30;;
14282;SDS011;7225;59.282;18.344;2022-11-25T11:36:36;3.00;;;2.70;;
14282;SDS011;7225;59.282;18.344;2022-11-25T11:42:23;2.10;;;1.90;;
14282;SDS011;7225;59.282;18.344;2022-11-25T11:47:58;2.30;;;1.90;;
14282;SDS011;7225;59.282;18.344;2022-11-25T11:56:50;2.30;;;1.73;;
14282;SDS011;7225;59.282;18.344;2022-11-25T11:59:27;2.33;;;2.13;;
14282;SDS011;7225;59.282;18.344;2022-11-25T12:10:29;2.07;;;1.40;;
14282;SDS011;7225;59.282;18.344;2022-11-25T12:15:59;2.20;;;1.60;;
14282;SDS011;7225;59.282;18.344;2022-11-25T12:27:00;3.00;;;2.80;;
14282;SDS011;7225;59.282;18.344;2022-11-25T12:32:33;1.90;;;1.60;;
14282;SDS011;7225;59.282;18.344;2022-11-25T12:38:17;2.10;;;1.60;;
14282;SDS011;7225;59.282;18.344;2022-11-25T12:41:08;2.10;;;1.77;;
14282;SDS011;7225;59.282;18.344;2022-11-25T12:43:59;1.93;;;1.60;;
14282;SDS011;7225;59.282;18.344;2022-11-25T12:49:21;2.47;;;1.80;;
14282;SDS011;7225;59.282;18.344;2022-11-25T13:01:19;2.03;;;1.70;;
14282;SDS011;7225;59.282;18.344;2022-11-25T13:13:09;2.23;;;1.90;;
14282;SDS011;7225;59.282;18.344;2022-11-25T13:15:53;2.20;;;1.70;;
14282;SDS011;7225;59.282;18.344;2022-11-25T13:18:22;1.77;;;1.63;;
14282;SDS011;7225;59.282;18.344;2022-11-25T13:20:53;2.17;;;1.87;;
14282;SDS011;7225;59.282;18.344;2022-11-25T13:23:25;1.60;;;1.37;;
14282;SDS011;7225;59.282;18.344;2022-11-25T13:28:59;1.73;;;1.50;;
14282;SDS011;7225;59.282;18.344;2022-11-25T13:31:32;2.27;;;1.50;;
14282;SDS011;7225;59.282;18.344;2022-11-25T13:34:28;2.10;;;1.70;;
14282;SDS011;7225;59.282;18.344;2022-11-25T13:37:00;2.40;;;2.00;;
14282;SDS011;7225;59.282;18.344;2022-11-25T13:39:48;2.43;;;2.00;;
14282;SDS011;7225;59.282;18.344;2022-11-25T13:42:39;2.93;;;2.13;;
14282;SDS011;7225;59.282;18.344;2022-11-25T13:45:43;2.20;;;2.00;;
14282;SDS011;7225;59.282;18.344;2022-11-25T13:50:37;2.23;;;1.93;;
14282;SDS011;7225;59.282;18.344;2022-11-25T13:53:27;2.67;;;2.00;;
14282;SDS011;7225;59.282;18.344;2022-11-25T14:04:15;3.97;;;2.27;;
14282;SDS011;7225;59.282;18.344;2022-11-25T14:12:31;2.73;;;2.23;;
14282;SDS011;7225;59.282;18.344;2022-11-25T14:15:26;2.50;;;1.93;;
14282;SDS011;7225;59.282;18.344;2022-11-25T14:18:08;3.40;;;2.40;;
14282;SDS011;7225;59.282;18.344;2022-11-25T14:23:58;2.77;;;2.30;;
14282;SDS011;7225;59.282;18.344;2022-11-25T14:26:44;2.37;;;2.03;;
14282;SDS011;7225;59.282;18.344;2022-11-25T14:29:21;3.67;;;1.90;;
14282;SDS011;7225;59.282;18.344;2022-11-25T14:31:56;3.80;;;2.27;;
14282;SDS011;7225;59.282;18.344;2022-11-25T14:34:35;2.80;;;1.80;;
14282;SDS011;7225;59.282;18.344;2022-11-25T14:37:22;2.37;;;2.10;;
14282;SDS011;7225;59.282;18.344;2022-11-25T14:40:11;2.80;;;1.90;;
14282;SDS011;7225;59.282;18.344;2022-11-25T14:42:45;3.83;;;2.40;;
14282;SDS011;7225;59.282;18.344;2022-11-25T14:45:22;4.73;;;2.50;;
14282;SDS011;7225;59.282;18.344;2022-11-25T14:47:50;3.57;;;2.37;;
14282;SDS011;7225;59.282;18.344;2022-11-25T14:50:18;4.27;;;3.20;;
14282;SDS011;7225;59.282;18.344;2022-11-25T14:53:07;3.80;;;2.90;;
14282;SDS011;7225;59.282;18.344;2022-11-25T14:55:36;3.97;;;3.10;;
14282;SDS011;7225;59.282;18.344;2022-11-25T14:58:04;5.03;;;3.23;;
14282;SDS011;7225;59.282;18.344;2022-11-25T15:00:33;4.73;;;3.30;;
14282;SDS011;7225;59.282;18.344;2022-11-25T15:03:01;4.10;;;3.20;;
14282;SDS011;7225;59.282;18.344;2022-11-25T15:05:34;3.90;;;2.70;;
14282;SDS011;7225;59.282;18.344;2022-11-25T15:08:08;3.53;;;2.97;;
14282;SDS011;7225;59.282;18.344;2022-11-25T15:10:53;9.40;;;7.23;;
14282;SDS011;7225;59.282;18.344;2022-11-25T15:16:16;3.97;;;3.17;;
14282;SDS011;7225;59.282;18.344;2022-11-25T15:19:13;4.07;;;3.20;;
14282;SDS011;7225;59.282;18.344;2022-11-25T15:21:43;4.77;;;3.47;;
14282;SDS011;7225;59.282;18.344;2022-11-25T15:24:32;3.53;;;3.23;;
14282;SDS011;7225;59.282;18.344;2022-11-25T15:27:26;3.77;;;2.90;;
14282;SDS011;7225;59.282;18.344;2022-11-25T15:29:54;5.30;;;3.33;;
14282;SDS011;7225;59.282;18.344;2022-11-25T15:32:24;7.63;;;3.47;;
14282;SDS011;7225;59.282;18.344;2022-11-25T15:34:54;7.13;;;3.87;;
14282;SDS011;7225;59.282;18.344;2022-11-25T15:37:26;4.17;;;3.20;;
14282;SDS011;7225;59.282;18.344;2022-11-25T15:42:54;4.17;;;3.00;;
14282;SDS011;7225;59.282;18.344;2022-11-25T15:45:23;3.13;;;2.80;;
14282;SDS011;7225;59.282;18.344;2022-11-25T15:47:59;4.77;;;3.20;;
14282;SDS011;7225;59.282;18.344;2022-11-25T15:50:31;4.33;;;3.20;;
14282;SDS011;7225;59.282;18.344;2022-11-25T15:53:03;5.60;;;3.33;;
14282;SDS011;7225;59.282;18.344;2022-11-25T15:55:34;5.90;;;3.73;;
14282;SDS011;7225;59.282;18.344;2022-11-25T15:58:05;4.00;;;3.40;;
14282;SDS011;7225;59.282;18.344;2022-11-25T16:01:04;4.00;;;3.60;;
14282;SDS011;7225;59.282;18.344;2022-11-25T16:03:33;3.90;;;3.47;;
14282;SDS011;7225;59.282;18.344;2022-11-25T16:06:01;5.43;;;3.80;;
14282;SDS011;7225;59.282;18.344;2022-11-25T16:09:02;4.17;;;3.40;;
14282;SDS011;7225;59.282;18.344;2022-11-25T16:11:42;5.30;;;3.73;;
14282;SDS011;7225;59.282;18.344;2022-11-25T16:14:26;4.87;;;3.60;;
14282;SDS011;7225;59.282;18.344;2022-11-25T16:17:01;4.20;;;3.53;;
14282;SDS011;7225;59.282;18.344;2022-11-25T16:19:41;4.43;;;3.23;;
14282;SDS011;7225;59.282;18.344;2022-11-25T16:22:13;4.60;;;2.90;;
14282;SDS011;7225;59.282;18.344;2022-11-25T16:24:48;5.20;;;3.33;;
14282;SDS011;7225;59.282;18.344;2022-11-25T16:27:17;4.90;;;3.47;;
14282;SDS011;7225;59.282;18.344;2022-11-25T16:29:47;6.37;;;3.20;;
14282;SDS011;7225;59.282;18.344;2022-11-25T16:32:26;3.83;;;3.33;;
14282;SDS011;7225;59.282;18.344;2022-11-25T16:34:55;3.97;;;3.27;;
14282;SDS011;7225;59.282;18.344;2022-11-25T16:37:31;4.37;;;3.30;;
14282;SDS011;7225;59.282;18.344;2022-11-25T16:39:58;5.50;;;3.20;;
14282;SDS011;7225;59.282;18.344;2022-11-25T16:42:25;4.17;;;3.50;;
14282;SDS011;7225;59.282;18.344;2022-11-25T16:44:54;6.27;;;4.90;;
14282;SDS011;7225;59.282;18.344;2022-11-25T16:47:22;14.00;;;12.30;;
14282;SDS011;7225;59.282;18.344;2022-11-25T16:49:52;7.27;;;5.10;;
14282;SDS011;7225;59.282;18.344;2022-11-25T16:52:21;7.03;;;4.00;;
14282;SDS011;7225;59.282;18.344;2022-11-25T16:54:48;5.63;;;3.97;;
14282;SDS011;7225;59.282;18.344;2022-11-25T16:57:17;3.53;;;3.10;;
14282;SDS011;7225;59.282;18.344;2022-11-25T16:59:48;4.20;;;3.33;;
14282;SDS011;7225;59.282;18.344;2022-11-25T17:02:24;3.27;;;2.97;;
14282;SDS011;7225;59.282;18.344;2022-11-25T17:04:52;3.57;;;2.90;;
14282;SDS011;7225;59.282;18.344;2022-11-25T17:07:20;4.37;;;3.30;;
14282;SDS011;7225;59.282;18.344;2022-11-25T17:10:03;4.40;;;3.20;;
14282;SDS011;7225;59.282;18.344;2022-11-25T17:12:32;7.73;;;4.63;;
14282;SDS011;7225;59.282;18.344;2022-11-25T17:15:04;11.63;;;8.20;;
14282;SDS011;7225;59.282;18.344;2022-11-25T17:17:34;5.37;;;4.03;;
14282;SDS011;7225;59.282;18.344;2022-11-25T17:20:03;9.20;;;7.03;;
14282;SDS011;7225;59.282;18.344;2022-11-25T17:22:33;7.40;;;5.30;;
14282;SDS011;7225;59.282;18.344;2022-11-25T17:25:08;5.27;;;3.93;;